Time;durP1;ratioP1;P1;durP2;ratioP2;P2;SDS_P1;SDS_P2;PMS_P1;PMS_P2;Temp;Humidity;BMP_temperature;BMP_pressure;BME280_temperature;BME280_humidity;BME280_pressure;Samples;Min_cycle;Max_cycle;Signal;HPM_P1;HPM_P2
2021/05/29 00:00:16;;;;;;;6.03;4.43;;;8.40;99.90;;;;;;5026777;28;20256;-78
2021/05/29 00:02:44;;;;;;;6.35;4.75;;;8.40;99.90;;;;;;5026811;28;20206;-78
2021/05/29 00:05:13;;;;;;;4.50;3.58;;;8.40;99.90;;;;;;5021778;28;20178;-78
2021/05/29 00:07:40;;;;;;;7.07;4.63;;;8.40;99.90;;;;;;5024468;28;20695;-78
2021/05/29 00:10:09;;;;;;;6.65;5.13;;;8.40;99.90;;;;;;5023126;28;20217;-78
2021/05/29 00:12:36;;;;;;;9.88;5.57;;;8.40;99.90;;;;;;5021531;28;20633;-78
2021/05/29 00:15:07;;;;;;;6.22;3.92;;;8.40;99.90;;;;;;5022875;28;20217;-79
2021/05/29 00:17:35;;;;;;;5.03;3.92;;;8.40;99.90;;;;;;5017233;28;20302;-77
2021/05/29 00:20:04;;;;;;;4.28;2.80;;;8.40;99.90;;;;;;5020051;28;20230;-78
2021/05/29 00:22:31;;;;;;;4.07;3.67;;;8.40;99.90;;;;;;5019768;28;20185;-79
2021/05/29 00:24:59;;;;;;;4.88;4.47;;;8.40;99.90;;;;;;5021441;28;20174;-78
2021/05/29 00:27:27;;;;;;;3.60;3.28;;;8.30;99.90;;;;;;5021682;28;20201;-77
2021/05/29 00:29:54;;;;;;;5.45;3.72;;;8.40;99.90;;;;;;5035923;28;20210;-77
2021/05/29 00:32:23;;;;;;;4.70;3.60;;;8.30;99.90;;;;;;5020597;28;20175;-77
2021/05/29 00:34:50;;;;;;;6.85;4.05;;;8.20;99.90;;;;;;5018082;28;20182;-77
2021/05/29 00:37:18;;;;;;;5.68;4.20;;;8.20;99.90;;;;;;5032022;28;20210;-77
2021/05/29 00:39:46;;;;;;;4.78;4.32;;;8.20;99.90;;;;;;5016525;28;20214;-77
2021/05/29 00:42:13;;;;;;;5.32;4.57;;;8.20;99.90;;;;;;5018327;28;20225;-77
2021/05/29 00:44:48;;;;;;;6.03;3.42;;;8.20;99.90;;;;;;5019314;28;20209;-78
2021/05/29 00:47:19;;;;;;;3.72;3.35;;;8.20;99.90;;;;;;5021275;28;20185;-78
2021/05/29 00:49:47;;;;;;;5.00;4.22;;;8.20;99.90;;;;;;5028643;28;20214;-78
2021/05/29 00:52:16;;;;;;;4.22;3.63;;;8.20;99.90;;;;;;5032503;28;20194;-78
2021/05/29 00:54:45;;;;;;;4.90;4.40;;;8.10;99.90;;;;;;5026211;28;20188;-78
2021/05/29 00:57:14;;;;;;;5.95;4.57;;;8.10;99.90;;;;;;5020330;28;20225;-78
2021/05/29 00:59:42;;;;;;;9.18;5.40;;;8.10;99.90;;;;;;5020837;28;20224;-78
2021/05/29 01:02:12;;;;;;;6.88;4.47;;;8.00;99.90;;;;;;5020068;28;20186;-78
2021/05/29 01:04:40;;;;;;;5.97;5.10;;;7.90;99.90;;;;;;5032473;28;20221;-78
2021/05/29 01:07:12;;;;;;;5.97;3.85;;;7.90;99.90;;;;;;5033438;28;20206;-77
2021/05/29 01:09:40;;;;;;;5.90;4.55;;;7.80;99.90;;;;;;5030747;28;20336;-78
2021/05/29 01:12:10;;;;;;;5.88;3.75;;;7.80;99.90;;;;;;5023633;28;20190;-77
2021/05/29 01:14:46;;;;;;;5.82;4.22;;;7.80;99.90;;;;;;5020726;28;20185;-78
2021/05/29 01:17:15;;;;;;;7.95;5.28;;;7.80;99.90;;;;;;5020434;28;20197;-77
2021/05/29 01:19:43;;;;;;;7.03;4.32;;;7.80;99.90;;;;;;5025455;28;20214;-78
2021/05/29 01:22:12;;;;;;;5.45;4.30;;;7.80;99.90;;;;;;5037975;28;20182;-78
2021/05/29 01:24:41;;;;;;;5.85;4.15;;;7.80;99.90;;;;;;5038138;28;20244;-78
2021/05/29 01:27:09;;;;;;;8.13;4.03;;;7.80;99.90;;;;;;5035573;28;20170;-78
2021/05/29 01:29:36;;;;;;;5.88;3.95;;;7.80;99.90;;;;;;5036194;28;20213;-77
2021/05/29 01:32:06;;;;;;;5.65;5.15;;;7.80;99.90;;;;;;5020875;28;20194;-78
2021/05/29 01:34:36;;;;;;;5.65;4.70;;;7.80;99.90;;;;;;5019743;28;20198;-80
2021/05/29 01:37:05;;;;;;;4.68;3.75;;;7.80;99.90;;;;;;5020139;28;20201;-78
2021/05/29 01:39:33;;;;;;;4.57;3.25;;;7.80;99.90;;;;;;5021300;28;20245;-78
2021/05/29 01:42:01;;;;;;;5.35;3.70;;;7.80;99.90;;;;;;5021946;28;20177;-78
2021/05/29 01:44:29;;;;;;;4.30;3.53;;;7.70;99.90;;;;;;5019394;28;20194;-78
2021/05/29 01:46:57;;;;;;;6.72;4.03;;;7.70;99.90;;;;;;5021403;28;20194;-79
2021/05/29 01:49:25;;;;;;;4.95;4.13;;;7.70;99.90;;;;;;5020338;28;20703;-79
2021/05/29 01:51:53;;;;;;;6.45;4.47;;;7.60;99.90;;;;;;5021170;28;20175;-79
2021/05/29 01:54:20;;;;;;;6.97;5.22;;;7.60;99.90;;;;;;5037227;28;20248;-80
2021/05/29 01:56:49;;;;;;;6.78;4.47;;;7.60;99.90;;;;;;5020768;28;20205;-79
2021/05/29 01:59:16;;;;;;;6.13;3.42;;;7.60;99.90;;;;;;5028378;28;20213;-78
2021/05/29 02:01:44;;;;;;;6.75;4.38;;;7.50;99.90;;;;;;5034116;28;20267;-79
2021/05/29 02:04:12;;;;;;;10.20;4.90;;;7.60;99.90;;;;;;5032497;28;20266;-78
2021/05/29 02:06:39;;;;;;;6.00;5.18;;;7.50;99.90;;;;;;5021277;28;20190;-80
2021/05/29 02:09:07;;;;;;;7.07;4.50;;;7.50;99.90;;;;;;5018827;28;20214;-78
2021/05/29 02:11:35;;;;;;;5.28;4.78;;;7.50;99.90;;;;;;5019397;28;20241;-79
2021/05/29 02:14:04;;;;;;;8.50;4.05;;;7.40;99.90;;;;;;5021003;28;20201;-79
2021/05/29 02:16:31;;;;;;;6.43;4.45;;;7.40;99.90;;;;;;5020452;28;20221;-78
2021/05/29 02:18:59;;;;;;;8.50;4.38;;;7.40;99.90;;;;;;5019338;28;20265;-78
2021/05/29 02:21:27;;;;;;;13.05;6.35;;;7.40;99.90;;;;;;5021159;28;20191;-79
2021/05/29 02:23:54;;;;;;;6.57;5.30;;;7.40;99.90;;;;;;5019020;28;20268;-77
2021/05/29 02:26:22;;;;;;;4.80;4.22;;;7.40;99.90;;;;;;5020635;28;20177;-77
2021/05/29 02:28:54;;;;;;;6.43;3.70;;;7.40;99.90;;;;;;5021331;28;20193;-77
2021/05/29 02:31:23;;;;;;;7.85;4.78;;;7.40;99.90;;;;;;5022128;28;20186;-78
2021/05/29 02:33:51;;;;;;;13.05;6.43;;;7.30;99.90;;;;;;5022027;28;20253;-78
2021/05/29 02:36:19;;;;;;;7.07;5.50;;;7.30;99.90;;;;;;5021234;28;20511;-79
2021/05/29 02:38:47;;;;;;;8.75;4.63;;;7.40;99.90;;;;;;5019859;28;20229;-80
2021/05/29 02:41:15;;;;;;;7.05;4.68;;;7.40;99.90;;;;;;5020708;28;20186;-79
2021/05/29 02:43:42;;;;;;;6.88;4.88;;;7.40;99.90;;;;;;5021792;28;20201;-79
2021/05/29 02:46:10;;;;;;;6.32;4.68;;;7.40;99.90;;;;;;5021047;28;20182;-80
2021/05/29 02:48:39;;;;;;;5.13;4.63;;;7.40;99.90;;;;;;5020086;28;20554;-81
2021/05/29 02:51:07;;;;;;;7.68;5.50;;;7.40;99.90;;;;;;5036253;28;20202;-78
2021/05/29 02:53:34;;;;;;;9.43;4.35;;;7.40;99.90;;;;;;5021625;28;20233;-79
2021/05/29 02:56:02;;;;;;;10.60;5.05;;;7.40;99.90;;;;;;5021791;28;20174;-80
2021/05/29 02:58:30;;;;;;;8.60;4.90;;;7.40;99.90;;;;;;5024600;28;20222;-79
2021/05/29 03:00:57;;;;;;;7.68;4.60;;;7.40;99.90;;;;;;5020716;28;20209;-79
2021/05/29 03:03:25;;;;;;;8.13;5.38;;;7.50;99.90;;;;;;5020070;28;20200;-79
2021/05/29 03:05:54;;;;;;;6.50;4.80;;;7.40;99.90;;;;;;5022827;28;20220;-78
2021/05/29 03:08:22;;;;;;;8.88;5.07;;;7.50;99.90;;;;;;5021238;28;20232;-78
2021/05/29 03:10:51;;;;;;;7.05;4.80;;;7.50;99.90;;;;;;5038205;23;20222;-66
2021/05/29 03:13:19;;;;;;;8.60;5.75;;;7.50;99.90;;;;;;4999709;28;20203;-66
2021/05/29 03:15:48;;;;;;;11.75;5.35;;;7.40;99.90;;;;;;4994757;28;20662;-66
2021/05/29 03:18:16;;;;;;;9.95;6.03;;;7.50;99.90;;;;;;4994912;28;20214;-65
2021/05/29 03:20:44;;;;;;;6.43;4.85;;;7.40;99.90;;;;;;4994508;28;20186;-66
2021/05/29 03:23:12;;;;;;;5.60;5.10;;;7.40;99.90;;;;;;4994536;28;20236;-66
2021/05/29 03:25:40;;;;;;;5.88;4.20;;;7.50;99.90;;;;;;4994642;28;20191;-66
2021/05/29 03:28:08;;;;;;;8.35;5.85;;;7.40;99.90;;;;;;4976970;28;20599;-65
2021/05/29 03:30:37;;;;;;;7.70;5.90;;;7.40;99.90;;;;;;4994615;28;20199;-66
2021/05/29 03:33:04;;;;;;;8.63;6.68;;;7.40;99.90;;;;;;4994611;28;20210;-66
2021/05/29 03:35:32;;;;;;;7.13;4.82;;;7.40;99.90;;;;;;4977310;28;20202;-66
2021/05/29 03:38:00;;;;;;;10.43;5.32;;;7.50;99.90;;;;;;4994469;28;20194;-66
2021/05/29 03:40:28;;;;;;;7.90;4.43;;;7.60;99.90;;;;;;4994684;28;20195;-66
2021/05/29 03:42:56;;;;;;;16.33;9.10;;;7.70;99.90;;;;;;4994379;28;20209;-66
2021/05/29 03:45:23;;;;;;;10.68;6.47;;;7.80;99.90;;;;;;4995189;28;20425;-66
2021/05/29 03:47:51;;;;;;;11.57;7.63;;;7.80;99.90;;;;;;4994745;28;20183;-66
2021/05/29 03:50:22;;;;;;;13.43;8.13;;;7.80;99.90;;;;;;4994424;28;20191;-66
2021/05/29 03:52:50;;;;;;;18.25;9.43;;;8.00;99.90;;;;;;4993960;28;20207;-66
2021/05/29 03:55:20;;;;;;;14.77;9.82;;;8.00;99.90;;;;;;4993942;28;20183;-66
2021/05/29 03:57:49;;;;;;;16.63;8.45;;;8.00;99.90;;;;;;4993987;28;20202;-66
2021/05/29 04:00:19;;;;;;;13.50;8.30;;;8.00;99.90;;;;;;4994103;28;20190;-66
2021/05/29 04:02:47;;;;;;;13.10;8.10;;;8.10;99.90;;;;;;4976690;28;20222;-66
2021/05/29 04:05:16;;;;;;;12.40;8.43;;;8.00;99.90;;;;;;4993978;28;20770;-67
2021/05/29 04:07:44;;;;;;;16.33;8.90;;;8.10;99.90;;;;;;4993953;28;20194;-65
2021/05/29 04:10:15;;;;;;;15.80;7.47;;;8.10;99.90;;;;;;4993912;28;20306;-66
2021/05/29 04:12:43;;;;;;;12.65;6.60;;;8.00;99.90;;;;;;4993802;28;20207;-66
2021/05/29 04:15:14;;;;;;;11.23;6.68;;;7.90;99.90;;;;;;4993351;28;20195;-66
2021/05/29 04:17:42;;;;;;;7.35;5.28;;;8.00;99.90;;;;;;4994074;28;20686;-66
2021/05/29 04:20:12;;;;;;;11.70;7.75;;;8.00;99.90;;;;;;4994076;28;20183;-66
2021/05/29 04:22:40;;;;;;;9.13;6.43;;;8.00;99.90;;;;;;4993413;28;20720;-66
2021/05/29 04:25:11;;;;;;;9.15;6.00;;;8.00;99.90;;;;;;4993963;28;20229;-66
2021/05/29 04:27:38;;;;;;;8.23;6.65;;;8.00;99.90;;;;;;4976717;28;20632;-65
2021/05/29 04:30:09;;;;;;;12.35;9.15;;;8.00;99.90;;;;;;4993591;28;20195;-65
2021/05/29 04:32:37;;;;;;;10.52;5.82;;;8.00;99.90;;;;;;4993594;28;20610;-66
2021/05/29 04:35:08;;;;;;;11.02;7.28;;;8.10;99.90;;;;;;4993686;28;20183;-66
2021/05/29 04:37:37;;;;;;;13.65;6.40;;;8.10;99.90;;;;;;4992302;28;20250;-65
2021/05/29 04:40:07;;;;;;;11.82;7.10;;;8.10;99.90;;;;;;4993559;28;20183;-65
2021/05/29 04:42:35;;;;;;;14.23;7.63;;;8.20;99.90;;;;;;4993304;28;20192;-65
2021/05/29 04:45:04;;;;;;;7.47;6.15;;;8.20;99.90;;;;;;4993529;28;20253;-65
2021/05/29 04:47:32;;;;;;;19.70;6.82;;;8.30;99.90;;;;;;4993395;28;20174;-65
2021/05/29 04:50:01;;;;;;;12.95;6.20;;;8.30;99.90;;;;;;4993469;28;20545;-65
2021/05/29 04:52:28;;;;;;;9.98;7.07;;;8.30;99.90;;;;;;4993185;28;20573;-65
2021/05/29 04:54:56;;;;;;;9.65;8.35;;;8.50;99.90;;;;;;4992937;28;20193;-65
2021/05/29 04:57:23;;;;;;;12.35;7.32;;;8.50;99.90;;;;;;4992993;28;20567;-65
2021/05/29 04:59:51;;;;;;;14.32;8.32;;;8.50;99.90;;;;;;4993208;28;20206;-65
2021/05/29 05:02:19;;;;;;;11.80;6.40;;;8.60;99.90;;;;;;4992775;28;20183;-66
2021/05/29 05:04:46;;;;;;;11.38;6.45;;;8.50;99.90;;;;;;4993117;28;20562;-66
2021/05/29 05:07:15;;;;;;;8.85;6.30;;;8.50;99.90;;;;;;4992796;28;20222;-66
2021/05/29 05:09:43;;;;;;;12.00;7.20;;;8.60;99.90;;;;;;4993033;28;20233;-66
2021/05/29 05:12:11;;;;;;;11.27;7.30;;;8.50;99.90;;;;;;4993199;28;20193;-66
2021/05/29 05:14:44;;;;;;;11.73;7.45;;;8.40;99.90;;;;;;4992681;28;20215;-66
2021/05/29 05:17:13;;;;;;;9.52;7.03;;;8.40;99.90;;;;;;4992488;28;20651;-66
2021/05/29 05:19:40;;;;;;;10.25;6.90;;;8.40;99.90;;;;;;4992814;28;20262;-66
2021/05/29 05:22:08;;;;;;;10.68;7.93;;;8.30;99.90;;;;;;4992205;28;20529;-66
2021/05/29 05:24:37;;;;;;;12.25;6.90;;;8.30;99.90;;;;;;4975109;28;20221;-66
2021/05/29 05:27:05;;;;;;;9.77;5.70;;;8.40;99.90;;;;;;4991704;28;20191;-68
2021/05/29 05:29:32;;;;;;;12.23;6.95;;;8.40;99.90;;;;;;4992480;28;20262;-67
2021/05/29 05:32:00;;;;;;;10.07;7.43;;;8.50;99.90;;;;;;4992607;28;20760;-66
2021/05/29 05:34:29;;;;;;;10.48;7.40;;;8.60;99.90;;;;;;4992642;28;20289;-66
2021/05/29 05:36:57;;;;;;;12.35;8.52;;;8.60;99.90;;;;;;4992993;28;20211;-66
2021/05/29 05:39:25;;;;;;;9.15;6.13;;;8.60;99.90;;;;;;4992856;28;20713;-66
2021/05/29 05:41:54;;;;;;;9.35;6.70;;;8.70;99.90;;;;;;4992699;28;20597;-66
2021/05/29 05:44:21;;;;;;;10.25;5.88;;;8.70;99.90;;;;;;4992856;28;20209;-65
2021/05/29 05:46:49;;;;;;;12.02;8.75;;;8.80;99.90;;;;;;4992880;28;20599;-65
2021/05/29 05:49:17;;;;;;;13.00;7.50;;;8.90;99.90;;;;;;4992579;28;20270;-65
2021/05/29 05:51:45;;;;;;;10.05;6.95;;;8.90;99.90;;;;;;4992359;28;20225;-65
2021/05/29 05:54:12;;;;;;;10.75;8.90;;;8.90;99.90;;;;;;4992704;28;20533;-66
2021/05/29 05:56:40;;;;;;;10.30;7.43;;;8.90;99.90;;;;;;4975657;28;20194;-66
2021/05/29 05:59:08;;;;;;;14.43;7.18;;;9.00;99.90;;;;;;4993179;28;20221;-66
2021/05/29 06:01:38;;;;;;;12.02;8.32;;;9.00;99.90;;;;;;4975294;28;20191;-66
2021/05/29 06:04:11;;;;;;;20.00;9.55;;;9.20;99.90;;;;;;4991768;28;20296;-66
2021/05/29 06:06:38;;;;;;;14.30;9.65;;;9.40;99.90;;;;;;4993339;28;20208;-66
2021/05/29 06:09:06;;;;;;;12.93;8.18;;;9.50;99.90;;;;;;4974417;28;20534;-66
2021/05/29 06:11:34;;;;;;;10.82;7.40;;;9.70;99.90;;;;;;4992842;28;20207;-66
2021/05/29 06:19:34;;;;;;;11.82;7.82;;;9.90;99.90;;;;;;4992175;28;20199;-66
2021/05/29 06:22:02;;;;;;;24.75;15.88;;;9.70;99.90;;;;;;4991383;28;20279;-66
2021/05/29 06:24:29;;;;;;;13.52;8.45;;;9.80;99.90;;;;;;4991490;28;20226;-66
2021/05/29 06:26:58;;;;;;;11.88;8.13;;;9.80;99.90;;;;;;4991594;28;20191;-66
2021/05/29 06:29:26;;;;;;;16.48;7.90;;;10.00;99.90;;;;;;4991435;28;20183;-66
2021/05/29 06:31:54;;;;;;;28.00;17.52;;;10.10;99.90;;;;;;4991451;28;20178;-66
2021/05/29 06:34:22;;;;;;;13.45;9.75;;;10.10;99.90;;;;;;4991412;28;20644;-66
2021/05/29 06:36:51;;;;;;;23.58;18.35;;;10.10;99.90;;;;;;4991561;28;20638;-67
2021/05/29 06:39:19;;;;;;;22.15;14.75;;;10.10;99.90;;;;;;4995490;28;20246;-67
2021/05/29 06:41:47;;;;;;;17.65;10.90;;;10.30;99.90;;;;;;4997923;28;20193;-67
2021/05/29 06:44:15;;;;;;;15.05;8.45;;;10.30;99.90;;;;;;4998148;28;20206;-66
2021/05/29 06:46:43;;;;;;;15.52;9.65;;;10.30;99.90;;;;;;4998102;28;20564;-66
2021/05/29 06:49:13;;;;;;;12.88;9.60;;;10.30;99.90;;;;;;4998997;28;20197;-66
2021/05/29 06:51:48;;;;;;;10.43;7.88;;;10.30;99.90;;;;;;4999118;28;20182;-66
2021/05/29 06:54:22;;;;;;;14.15;9.65;;;10.40;99.90;;;;;;4998703;28;20210;-65
2021/05/29 06:59:36;;;;;;;15.73;9.73;;;10.70;99.90;;;;;;4998522;28;20245;-66
2021/05/29 07:02:04;;;;;;;13.73;8.85;;;10.90;99.90;;;;;;4998472;28;20183;-66
2021/05/29 07:04:32;;;;;;;11.55;7.50;;;11.10;99.90;;;;;;4981198;28;20226;-65
2021/05/29 07:07:00;;;;;;;10.98;8.23;;;11.30;99.90;;;;;;4999967;28;20186;-66
2021/05/29 07:09:28;;;;;;;9.90;8.33;;;11.30;99.90;;;;;;5000083;28;20171;-66
2021/05/29 07:11:56;;;;;;;11.53;8.60;;;11.40;99.90;;;;;;4999759;28;20401;-66
2021/05/29 07:14:23;;;;;;;16.20;9.63;;;11.40;99.90;;;;;;4981998;28;20972;-67
2021/05/29 07:16:52;;;;;;;9.30;7.55;;;11.60;99.90;;;;;;4999580;28;20458;-66
2021/05/29 07:19:21;;;;;;;12.50;8.03;;;11.80;99.90;;;;;;4999333;28;20207;-66
2021/05/29 07:21:50;;;;;;;12.17;6.83;;;12.00;99.90;;;;;;4999492;28;20757;-65
2021/05/29 07:24:19;;;;;;;9.23;7.50;;;12.30;99.90;;;;;;4998695;28;20560;-66
2021/05/29 07:26:47;;;;;;;5.90;5.10;;;12.50;99.90;;;;;;4998647;28;20399;-66
2021/05/29 07:29:16;;;;;;;7.60;6.43;;;12.60;99.90;;;;;;4999046;28;20549;-66
2021/05/29 07:31:44;;;;;;;10.70;7.00;;;12.80;1.00;;;;;;4998820;28;20880;-66
2021/05/29 07:34:13;;;;;;;10.93;5.20;;;13.00;1.00;;;;;;4998797;28;20424;-67
2021/05/29 07:36:42;;;;;;;8.17;6.10;;;13.40;99.90;;;;;;4998967;28;20377;-66
2021/05/29 07:39:11;;;;;;;8.30;5.87;;;13.80;99.90;;;;;;4999034;28;21013;-66
2021/05/29 07:41:39;;;;;;;8.17;5.37;;;13.60;99.90;;;;;;4998532;28;20418;-67
2021/05/29 07:44:08;;;;;;;5.27;4.77;;;13.60;99.90;;;;;;4999464;28;20445;-68
2021/05/29 07:46:36;;;;;;;8.53;5.03;;;13.90;99.90;;;;;;4998622;28;20462;-68
2021/05/29 07:49:05;;;;;;;5.60;4.30;;;14.50;16.50;;;;;;4999078;28;20859;-68
2021/05/29 07:51:35;;;;;;;8.03;4.50;;;14.50;75.80;;;;;;4994460;28;20476;-69
2021/05/29 07:54:04;;;;;;;8.60;5.33;;;14.70;21.70;;;;;;4996135;28;20815;-69
2021/05/29 07:56:33;;;;;;;6.93;4.60;;;14.20;99.90;;;;;;4995704;28;20399;-69
2021/05/29 07:59:06;;;;;;;7.53;4.73;;;14.20;99.90;;;;;;4995581;28;20485;-68
2021/05/29 08:01:35;;;;;;;6.37;5.27;;;13.80;1.00;;;;;;4995869;28;20404;-69
2021/05/29 08:04:04;;;;;;;6.67;5.63;;;13.60;1.00;;;;;;4996864;28;20437;-69
2021/05/29 08:06:34;;;;;;;6.93;4.23;;;13.80;1.00;;;;;;4996321;28;20461;-67
2021/05/29 08:09:05;;;;;;;6.10;5.13;;;13.90;1.00;;;;;;4977875;28;20456;-68
2021/05/29 08:11:34;;;;;;;7.43;4.63;;;14.00;99.90;;;;;;4976570;28;20421;-68
2021/05/29 08:14:02;;;;;;;7.20;4.30;;;13.90;1.00;;;;;;4994630;28;20441;-68
2021/05/29 08:16:30;;;;;;;6.27;4.20;;;13.80;99.90;;;;;;4995059;28;20389;-69
2021/05/29 08:18:58;;;;;;;7.37;4.30;;;13.90;1.00;;;;;;4994585;28;20472;-70
2021/05/29 08:21:26;;;;;;;5.43;4.77;;;13.80;99.90;;;;;;4994871;28;20544;-68
2021/05/29 08:23:54;;;;;;;9.93;4.20;;;13.70;99.90;;;;;;4994966;28;20454;-68
2021/05/29 08:26:21;;;;;;;6.83;3.63;;;13.80;99.90;;;;;;4995443;28;20387;-68
2021/05/29 08:28:51;;;;;;;4.80;3.40;;;14.10;99.90;;;;;;4977125;28;20832;-68
2021/05/29 08:31:19;;;;;;;6.67;5.30;;;14.30;99.90;;;;;;4994321;28;20397;-68
2021/05/29 08:33:47;;;;;;;6.70;4.60;;;14.00;99.90;;;;;;4994183;28;20794;-68
2021/05/29 08:36:14;;;;;;;17.20;6.57;;;14.00;1.00;;;;;;4995886;28;20401;-68
2021/05/29 08:38:44;;;;;;;6.00;5.03;;;13.80;1.00;;;;;;4978473;28;20625;-69
2021/05/29 08:41:12;;;;;;;4.97;4.33;;;13.80;1.00;;;;;;4994307;28;20407;-69
2021/05/29 08:43:40;;;;;;;5.30;4.53;;;13.50;1.00;;;;;;4993915;28;20445;-69
2021/05/29 08:46:09;;;;;;;15.67;11.10;;;13.70;99.90;;;;;;4993255;28;20942;-69
2021/05/29 08:48:38;;;;;;;4.93;3.80;;;13.90;99.90;;;;;;4992708;28;20768;-69
2021/05/29 08:51:17;;;;;;;5.47;3.63;;;14.30;1.00;;;;;;4992933;28;20433;-68
2021/05/29 08:53:49;;;;;;;5.03;4.40;;;14.50;1.00;;;;;;4992734;28;20550;-68
2021/05/29 08:56:18;;;;;;;5.17;3.80;;;14.80;1.00;;;;;;4992576;28;20432;-68
2021/05/29 08:58:46;;;;;;;6.63;5.97;;;15.20;1.00;;;;;;4992489;28;20766;-68
2021/05/29 09:01:16;;;;;;;6.33;5.57;;;15.20;1.00;;;;;;4992282;28;20392;-68
2021/05/29 09:03:48;;;;;;;6.33;4.47;;;15.00;1.00;;;;;;4992612;28;20424;-68
2021/05/29 09:06:18;;;;;;;4.47;3.90;;;15.00;99.90;;;;;;4993536;28;20445;-69
2021/05/29 09:08:51;;;;;;;4.43;3.63;;;15.00;99.90;;;;;;4991287;28;20422;-69
2021/05/29 09:11:37;;;;;;;4.23;3.70;;;14.90;1.00;;;;;;4974173;28;20519;-69
2021/05/29 09:14:28;;;;;;;4.20;3.33;;;14.90;1.00;;;;;;4991889;28;20434;-69
2021/05/29 09:17:09;;;;;;;4.73;4.30;;;15.40;1.00;;;;;;4991837;28;20837;-69
2021/05/29 09:19:59;;;;;;;7.00;4.40;;;15.80;99.90;;;;;;4991967;28;20568;-69
2021/05/29 09:22:29;;;;;;;4.43;3.70;;;15.50;99.90;;;;;;4991386;28;20400;-69
2021/05/29 09:25:09;;;;;;;5.50;4.00;;;15.40;99.90;;;;;;4991840;28;20430;-69
2021/05/29 09:27:40;;;;;;;4.03;3.10;;;15.40;99.90;;;;;;4991801;28;20384;-69
2021/05/29 09:30:09;;;;;;;6.50;4.67;;;15.80;99.90;;;;;;4991681;28;20404;-69
2021/05/29 09:32:39;;;;;;;5.30;3.33;;;15.70;99.90;;;;;;4991753;28;20423;-69
2021/05/29 09:35:10;;;;;;;4.80;4.10;;;15.60;99.90;;;;;;4991480;28;20920;-70
2021/05/29 09:37:38;;;;;;;7.53;4.00;;;15.70;99.90;;;;;;4991305;28;20437;-69
2021/05/29 09:40:08;;;;;;;3.93;3.33;;;15.40;99.90;;;;;;4973801;28;20454;-71
2021/05/29 09:42:38;;;;;;;5.07;3.40;;;15.10;99.90;;;;;;4991665;28;20464;-69
2021/05/29 09:45:21;;;;;;;5.87;3.50;;;14.80;99.90;;;;;;4992064;28;20425;-70
2021/05/29 09:48:18;;;;;;;6.83;4.30;;;14.90;99.90;;;;;;4974232;28;20444;-69
2021/05/29 09:51:13;;;;;;;6.07;3.50;;;15.00;99.90;;;;;;4991633;28;20397;-68
2021/05/29 09:53:43;;;;;;;7.73;5.87;;;14.90;99.90;;;;;;4946554;28;20892;-70
2021/05/29 09:56:24;;;;;;;6.43;4.30;;;15.00;99.90;;;;;;4992014;28;20393;-70
2021/05/29 09:58:55;;;;;;;4.33;3.40;;;15.10;99.90;;;;;;4991748;28;20766;-69
2021/05/29 10:01:48;;;;;;;7.07;3.90;;;15.00;99.90;;;;;;5006437;28;20422;-69
2021/05/29 10:04:36;;;;;;;3.90;3.27;;;14.80;99.90;;;;;;4972625;28;20439;-69
2021/05/29 10:07:06;;;;;;;4.20;3.80;;;15.10;99.90;;;;;;4991316;28;20468;-68
2021/05/29 10:09:35;;;;;;;4.83;4.40;;;15.40;99.90;;;;;;4991333;28;20404;-69
2021/05/29 10:12:04;;;;;;;7.23;5.13;;;15.40;99.90;;;;;;4990725;28;20889;-69
2021/05/29 10:14:34;;;;;;;8.23;4.60;;;15.50;99.90;;;;;;4996171;28;20429;-69
2021/05/29 10:17:04;;;;;;;4.63;4.20;;;15.60;99.90;;;;;;4993150;28;20419;-69
2021/05/29 10:19:33;;;;;;;3.80;3.40;;;16.10;99.90;;;;;;5010575;28;20465;-69
2021/05/29 10:22:05;;;;;;;4.47;3.10;;;16.20;99.90;;;;;;5010702;28;20449;-69
2021/05/29 10:24:34;;;;;;;5.53;4.60;;;16.40;99.90;;;;;;5010647;28;20594;-69
2021/05/29 10:27:08;;;;;;;5.07;4.20;;;16.60;99.90;;;;;;4993273;28;21009;-67
2021/05/29 10:29:37;;;;;;;7.60;5.70;;;16.80;99.90;;;;;;5010654;28;20496;-68
2021/05/29 10:32:16;;;;;;;7.87;5.10;;;17.00;99.90;;;;;;5010754;28;20421;-68
2021/05/29 10:34:55;;;;;;;5.90;4.70;;;16.90;99.90;;;;;;5010759;28;20416;-67
2021/05/29 10:37:37;;;;;;;5.53;4.67;;;16.60;99.90;;;;;;5010757;28;20413;-68
2021/05/29 10:40:30;;;;;;;7.83;5.30;;;16.40;99.90;;;;;;5010566;28;20443;-69
2021/05/29 10:43:10;;;;;;;5.23;4.47;;;16.00;99.90;;;;;;4992451;28;20447;-69
2021/05/29 10:45:40;;;;;;;5.47;4.80;;;15.80;99.90;;;;;;5000006;28;20446;-69
2021/05/29 10:48:11;;;;;;;5.33;4.80;;;16.10;99.90;;;;;;4991024;28;20455;-69
2021/05/29 10:50:58;;;;;;;7.43;5.13;;;16.30;99.90;;;;;;4990807;28;20437;-69
2021/05/29 10:53:51;;;;;;;8.63;4.63;;;15.90;99.90;;;;;;4990625;28;20454;-68
2021/05/29 10:56:55;;;;;;;5.37;4.50;;;16.10;99.90;;;;;;4972468;28;20435;-69
2021/05/29 10:59:34;;;;;;;4.67;3.60;;;16.40;99.90;;;;;;4971108;28;21005;-68
2021/05/29 11:02:08;;;;;;;6.90;4.73;;;17.10;99.90;;;;;;4971092;28;20414;-69
2021/05/29 11:04:36;;;;;;;5.60;4.97;;;16.80;99.90;;;;;;4971307;28;20443;-69
2021/05/29 11:07:25;;;;;;;5.23;4.37;;;17.00;99.90;;;;;;4974419;28;20414;-69
2021/05/29 11:09:56;;;;;;;6.93;4.97;;;16.70;99.90;;;;;;4968311;28;20441;-68
2021/05/29 11:12:47;;;;;;;9.03;5.27;;;16.50;99.90;;;;;;4990438;28;20429;-69
2021/05/29 11:15:15;;;;;;;8.17;5.30;;;16.70;99.90;;;;;;4986768;28;20435;-69
2021/05/29 11:18:08;;;;;;;5.83;4.63;;;16.90;99.90;;;;;;4982505;28;20438;-70
2021/05/29 11:21:01;;;;;;;10.30;6.00;;;16.80;99.90;;;;;;4988263;28;20527;-70
2021/05/29 11:23:30;;;;;;;4.30;3.90;;;16.80;99.90;;;;;;4990551;28;20450;-70
2021/05/29 11:25:58;;;;;;;8.27;5.07;;;17.00;99.90;;;;;;4991964;28;20485;-71
2021/05/29 11:28:26;;;;;;;12.60;4.80;;;17.30;99.90;;;;;;4994045;28;20425;-70
2021/05/29 11:30:59;;;;;;;6.57;5.17;;;17.50;99.90;;;;;;4977555;28;20515;-70
2021/05/29 11:33:27;;;;;;;5.90;5.17;;;17.70;99.90;;;;;;4994787;28;20416;-69
2021/05/29 11:35:54;;;;;;;5.10;4.57;;;17.10;99.90;;;;;;4994735;28;20422;-71
2021/05/29 11:38:28;;;;;;;8.83;5.73;;;17.00;99.90;;;;;;4995092;28;20777;-70
2021/05/29 11:40:58;;;;;;;10.17;6.57;;;16.40;99.90;;;;;;4993677;28;20469;-70
2021/05/29 11:43:38;;;;;;;5.83;5.03;;;16.30;99.90;;;;;;4993387;28;20856;-72
2021/05/29 11:46:08;;;;;;;8.07;5.27;;;16.40;99.90;;;;;;4993873;28;20837;-71
2021/05/29 11:48:38;;;;;;;10.20;5.90;;;16.70;99.90;;;;;;4993840;28;20430;-71
2021/05/29 11:51:10;;;;;;;5.33;4.70;;;16.90;99.90;;;;;;4994083;28;20426;-72
2021/05/29 11:53:43;;;;;;;8.10;4.93;;;17.20;99.90;;;;;;4993868;28;20962;-72
2021/05/29 11:56:13;;;;;;;7.40;5.67;;;17.70;99.90;;;;;;4992911;28;20893;-72
2021/05/29 11:58:47;;;;;;;7.67;4.70;;;17.70;99.90;;;;;;4993752;28;20402;-71
2021/05/29 12:01:16;;;;;;;5.63;5.03;;;17.40;99.90;;;;;;4993462;28;20462;-71
2021/05/29 12:03:50;;;;;;;7.67;6.97;;;17.20;99.90;;;;;;4993340;28;20412;-71
2021/05/29 12:06:41;;;;;;;6.67;5.60;;;17.00;99.90;;;;;;4993800;28;20418;-71
2021/05/29 12:09:16;;;;;;;5.83;5.17;;;16.60;99.90;;;;;;4993361;28;20389;-71
2021/05/29 12:11:47;;;;;;;6.50;4.70;;;16.40;99.90;;;;;;4993407;28;20420;-71
2021/05/29 12:14:19;;;;;;;5.50;4.87;;;16.30;99.90;;;;;;4975864;28;20548;-71
2021/05/29 12:16:52;;;;;;;6.73;5.17;;;16.20;99.90;;;;;;4993559;28;20811;-72
2021/05/29 12:19:34;;;;;;;6.93;5.10;;;16.30;99.90;;;;;;4993335;28;20787;-71
2021/05/29 12:22:05;;;;;;;6.07;5.27;;;16.30;99.90;;;;;;4993073;28;20464;-70
2021/05/29 12:24:42;;;;;;;6.70;5.77;;;16.30;99.90;;;;;;4992798;28;20702;-71
2021/05/29 12:27:12;;;;;;;6.03;5.27;;;16.40;99.90;;;;;;4992293;28;20425;-70
2021/05/29 12:29:41;;;;;;;5.67;5.03;;;16.30;99.90;;;;;;4993613;28;20472;-70
2021/05/29 12:32:10;;;;;;;5.27;4.77;;;16.30;99.90;;;;;;4997448;28;20401;-70
2021/05/29 12:34:48;;;;;;;6.50;5.30;;;16.50;99.90;;;;;;5002169;28;20437;-71
2021/05/29 12:37:17;;;;;;;4.37;3.50;;;16.20;99.90;;;;;;4998722;28;20479;-70
2021/05/29 12:39:53;;;;;;;5.73;5.23;;;16.60;99.90;;;;;;4993327;28;20746;-71
2021/05/29 12:42:31;;;;;;;5.63;4.93;;;17.20;99.90;;;;;;4992919;28;20788;-71
2021/05/29 12:45:01;;;;;;;6.10;4.70;;;18.00;99.90;;;;;;4992033;28;20397;-71
2021/05/29 12:47:30;;;;;;;5.60;5.10;;;17.70;99.90;;;;;;4992066;28;20450;-70
2021/05/29 12:49:59;;;;;;;5.20;4.63;;;17.70;99.90;;;;;;4972864;28;20422;-71
2021/05/29 12:52:31;;;;;;;7.70;5.80;;;17.50;99.90;;;;;;4992901;28;20787;-71
2021/05/29 12:55:01;;;;;;;4.90;4.27;;;17.20;99.90;;;;;;4992801;28;20429;-71
2021/05/29 12:57:42;;;;;;;5.10;4.30;;;16.80;99.90;;;;;;4991403;28;20429;-69
2021/05/29 13:00:21;;;;;;;6.00;4.20;;;16.80;99.90;;;;;;4992775;28;20821;-69
2021/05/29 13:09:07;;;;;;;6.40;4.97;;;16.30;99.90;;;;;;4992692;28;20428;-69
2021/05/29 13:11:36;;;;;;;6.40;4.57;;;16.20;99.90;;;;;;4992947;28;20438;-68
2021/05/29 13:14:06;;;;;;;4.63;4.13;;;15.90;99.90;;;;;;4992445;28;20481;-68
2021/05/29 13:16:51;;;;;;;5.33;4.43;;;16.00;99.90;;;;;;4992728;28;20934;-68
2021/05/29 13:19:19;;;;;;;5.83;4.90;;;16.10;99.90;;;;;;4992456;28;20812;-68
2021/05/29 13:21:56;;;;;;;4.33;3.80;;;16.20;99.90;;;;;;4992033;28;20544;-68